sensor_id;sensor_type;location;lat;lon;timestamp;pressure;altitude;pressure_sealevel;temperature;humidity
72961;BME280;61141;46.204;19.774;2023-07-20T00:00:21;99775.28;;;22.73;78.29
72961;BME280;61141;46.204;19.774;2023-07-20T00:03:25;99757.16;;;22.77;78.25
72961;BME280;61141;46.204;19.774;2023-07-20T00:06:28;99765.09;;;22.70;78.75
72961;BME280;61141;46.204;19.774;2023-07-20T00:09:31;99765.84;;;22.70;79.07
72961;BME280;61141;46.204;19.774;2023-07-20T00:12:33;99759.16;;;22.68;79.12
72961;BME280;61141;46.204;19.774;2023-07-20T00:15:37;99767.06;;;22.60;79.71
72961;BME280;61141;46.204;19.774;2023-07-20T00:18:40;99773.88;;;22.59;80.05
72961;BME280;61141;46.204;19.774;2023-07-20T00:21:43;99785.66;;;22.54;80.27
72961;BME280;61141;46.204;19.774;2023-07-20T00:24:46;99792.81;;;22.55;80.10
72961;BME280;61141;46.204;19.774;2023-07-20T00:27:50;99780.06;;;22.54;80.17
72961;BME280;61141;46.204;19.774;2023-07-20T00:30:55;99773.13;;;22.59;79.77
72961;BME280;61141;46.204;19.774;2023-07-20T00:33:58;99776.50;;;22.54;79.93
72961;BME280;61141;46.204;19.774;2023-07-20T00:37:01;99772.97;;;22.53;80.05
72961;BME280;61141;46.204;19.774;2023-07-20T00:40:05;99763.94;;;22.49;80.56
72961;BME280;61141;46.204;19.774;2023-07-20T00:43:10;99765.34;;;22.54;80.26
72961;BME280;61141;46.204;19.774;2023-07-20T00:46:16;99773.41;;;22.52;80.09
72961;BME280;61141;46.204;19.774;2023-07-20T00:49:19;99768.91;;;22.45;80.06
72961;BME280;61141;46.204;19.774;2023-07-20T00:52:25;99769.22;;;22.47;80.05
72961;BME280;61141;46.204;19.774;2023-07-20T00:55:29;99772.97;;;22.53;80.00
72961;BME280;61141;46.204;19.774;2023-07-20T00:58:34;99785.66;;;22.54;80.73
72961;BME280;61141;46.204;19.774;2023-07-20T01:01:37;99779.75;;;22.43;80.96
72961;BME280;61141;46.204;19.774;2023-07-20T01:04:41;99768.28;;;22.41;80.66
72961;BME280;61141;46.204;19.774;2023-07-20T01:10:59;99750.31;;;22.42;81.03
72961;BME280;61141;46.204;19.774;2023-07-20T01:14:07;99742.53;;;22.37;81.17
72961;BME280;61141;46.204;19.774;2023-07-20T01:17:10;99721.16;;;22.34;80.84
72961;BME280;61141;46.204;19.774;2023-07-20T01:20:14;99728.91;;;22.39;80.81
72961;BME280;61141;46.204;19.774;2023-07-20T01:32:57;99737.91;;;22.34;81.57
72961;BME280;61141;46.204;19.774;2023-07-20T01:36:02;99738.50;;;22.29;81.64
72961;BME280;61141;46.204;19.774;2023-07-20T01:39:07;99731.03;;;22.26;81.61
72961;BME280;61141;46.204;19.774;2023-07-20T01:42:11;99748.72;;;22.32;81.79
72961;BME280;61141;46.204;19.774;2023-07-20T01:45:14;99745.94;;;22.23;82.37
72961;BME280;61141;46.204;19.774;2023-07-20T01:48:17;99751.84;;;22.25;82.39
72961;BME280;61141;46.204;19.774;2023-07-20T01:51:20;99754.63;;;22.25;82.52
72961;BME280;61141;46.204;19.774;2023-07-20T01:54:24;99754.31;;;22.23;82.73
72961;BME280;61141;46.204;19.774;2023-07-20T01:57:26;99747.63;;;22.11;83.05
72961;BME280;61141;46.204;19.774;2023-07-20T02:00:30;99756.00;;;22.11;83.16
72961;BME280;61141;46.204;19.774;2023-07-20T02:03:33;99755.06;;;22.05;83.75
72961;BME280;61141;46.204;19.774;2023-07-20T02:06:36;99767.44;;;22.04;83.82
72961;BME280;61141;46.204;19.774;2023-07-20T02:09:39;99760.78;;;22.02;83.89
72961;BME280;61141;46.204;19.774;2023-07-20T02:12:43;99772.22;;;21.95;84.23
72961;BME280;61141;46.204;19.774;2023-07-20T02:15:46;99784.00;;;21.90;84.81
72961;BME280;61141;46.204;19.774;2023-07-20T02:18:50;99791.59;;;21.89;84.74
72961;BME280;61141;46.204;19.774;2023-07-20T02:21:53;99792.59;;;21.83;85.23
72961;BME280;61141;46.204;19.774;2023-07-20T02:25:05;99789.25;;;21.88;85.10
72961;BME280;61141;46.204;19.774;2023-07-20T02:28:13;99789.59;;;21.99;85.39
72961;BME280;61141;46.204;19.774;2023-07-20T02:31:16;99793.75;;;21.94;85.11
72961;BME280;61141;46.204;19.774;2023-07-20T02:34:19;99797.41;;;21.82;85.87
72961;BME280;61141;46.204;19.774;2023-07-20T02:37:22;99776.31;;;21.72;86.04
72961;BME280;61141;46.204;19.774;2023-07-20T02:40:30;99786.41;;;21.79;86.12
72961;BME280;61141;46.204;19.774;2023-07-20T02:43:33;99786.97;;;21.74;85.91
72961;BME280;61141;46.204;19.774;2023-07-20T02:46:36;99791.16;;;21.69;86.23
72961;BME280;61141;46.204;19.774;2023-07-20T02:49:39;99797.03;;;21.62;86.88
72961;BME280;61141;46.204;19.774;2023-07-20T02:52:42;99809.44;;;21.39;88.64
72961;BME280;61141;46.204;19.774;2023-07-20T02:55:45;99804.56;;;21.52;88.31
72961;BME280;61141;46.204;19.774;2023-07-20T02:58:48;99811.41;;;21.60;87.45
72961;BME280;61141;46.204;19.774;2023-07-20T03:01:51;99807.66;;;21.54;87.02
72961;BME280;61141;46.204;19.774;2023-07-20T03:04:54;99806.56;;;21.52;87.46
72961;BME280;61141;46.204;19.774;2023-07-20T03:07:56;99804.38;;;21.47;87.76
72961;BME280;61141;46.204;19.774;2023-07-20T03:10:59;99816.00;;;21.45;88.27
72961;BME280;61141;46.204;19.774;2023-07-20T03:14:04;99826.25;;;21.57;88.00
72961;BME280;61141;46.204;19.774;2023-07-20T03:17:10;99828.50;;;21.72;87.20
72961;BME280;61141;46.204;19.774;2023-07-20T03:20:13;99825.22;;;21.64;87.39
72961;BME280;61141;46.204;19.774;2023-07-20T03:23:16;99829.62;;;21.52;87.56
72961;BME280;61141;46.204;19.774;2023-07-20T03:26:20;99828.72;;;21.55;87.82
72961;BME280;61141;46.204;19.774;2023-07-20T03:29:24;99818.81;;;21.54;88.09
72961;BME280;61141;46.204;19.774;2023-07-20T03:32:29;99817.09;;;21.48;88.06
72961;BME280;61141;46.204;19.774;2023-07-20T03:35:32;99834.44;;;21.52;88.16
72961;BME280;61141;46.204;19.774;2023-07-20T03:38:35;99836.25;;;21.46;88.36
72961;BME280;61141;46.204;19.774;2023-07-20T03:41:38;99849.47;;;21.54;88.20
72961;BME280;61141;46.204;19.774;2023-07-20T03:44:41;99855.81;;;21.55;88.42
72961;BME280;61141;46.204;19.774;2023-07-20T03:47:44;99866.97;;;21.55;88.83
72961;BME280;61141;46.204;19.774;2023-07-20T03:50:50;99880.13;;;21.54;88.79
72961;BME280;61141;46.204;19.774;2023-07-20T03:53:53;99874.84;;;21.47;89.26
72961;BME280;61141;46.204;19.774;2023-07-20T03:56:56;99882.34;;;21.59;89.13
72961;BME280;61141;46.204;19.774;2023-07-20T03:59:59;99893.87;;;21.71;88.72
72961;BME280;61141;46.204;19.774;2023-07-20T04:03:14;99864.84;;;21.59;88.79
72961;BME280;61141;46.204;19.774;2023-07-20T04:06:17;99885.53;;;21.71;88.86
72961;BME280;61141;46.204;19.774;2023-07-20T04:09:21;99865.41;;;21.76;88.86
72961;BME280;61141;46.204;19.774;2023-07-20T04:12:24;99878.87;;;21.77;89.35
72961;BME280;61141;46.204;19.774;2023-07-20T04:15:27;99882.13;;;21.76;89.65
72961;BME280;61141;46.204;19.774;2023-07-20T04:18:30;99872.91;;;21.88;89.21
72961;BME280;61141;46.204;19.774;2023-07-20T04:21:33;99877.63;;;22.00;88.49
72961;BME280;61141;46.204;19.774;2023-07-20T04:24:36;99878.94;;;22.17;87.99
72961;BME280;61141;46.204;19.774;2023-07-20T04:27:39;99888.84;;;22.18;87.67
72961;BME280;61141;46.204;19.774;2023-07-20T04:30:42;99888.84;;;22.09;88.34
72961;BME280;61141;46.204;19.774;2023-07-20T04:33:45;99884.06;;;22.18;87.98
72961;BME280;61141;46.204;19.774;2023-07-20T04:36:52;99883.59;;;22.20;87.95
72961;BME280;61141;46.204;19.774;2023-07-20T04:39:56;99885.94;;;22.21;87.82
72961;BME280;61141;46.204;19.774;2023-07-20T04:43:00;99893.50;;;22.12;87.93
72961;BME280;61141;46.204;19.774;2023-07-20T04:46:03;99893.53;;;22.21;87.38
72961;BME280;61141;46.204;19.774;2023-07-20T04:49:06;99881.03;;;22.44;86.36
72961;BME280;61141;46.204;19.774;2023-07-20T04:52:10;99896.72;;;22.59;85.36
72961;BME280;61141;46.204;19.774;2023-07-20T04:55:14;99893.19;;;22.59;85.52
72961;BME280;61141;46.204;19.774;2023-07-20T04:58:20;99897.47;;;22.51;85.38
72961;BME280;61141;46.204;19.774;2023-07-20T05:01:24;99899.91;;;22.79;84.15
72961;BME280;61141;46.204;19.774;2023-07-20T05:04:27;99895.59;;;22.97;83.26
72961;BME280;61141;46.204;19.774;2023-07-20T05:07:40;99900.25;;;23.00;82.93
72961;BME280;61141;46.204;19.774;2023-07-20T05:10:43;99896.69;;;22.99;82.76
72961;BME280;61141;46.204;19.774;2023-07-20T05:13:52;99895.88;;;22.90;82.84
72961;BME280;61141;46.204;19.774;2023-07-20T05:16:55;99903.69;;;23.22;81.56
72961;BME280;61141;46.204;19.774;2023-07-20T05:19:58;99897.62;;;23.42;80.26
72961;BME280;61141;46.204;19.774;2023-07-20T05:23:01;99896.69;;;23.54;79.35
72961;BME280;61141;46.204;19.774;2023-07-20T05:26:07;99889.22;;;23.51;79.32
72961;BME280;61141;46.204;19.774;2023-07-20T05:29:10;99890.16;;;23.48;78.80
72961;BME280;61141;46.204;19.774;2023-07-20T05:32:14;99898.66;;;23.71;77.77
72961;BME280;61141;46.204;19.774;2023-07-20T05:35:18;99889.00;;;23.72;76.97
72961;BME280;61141;46.204;19.774;2023-07-20T05:38:21;99883.91;;;23.62;77.16
72961;BME280;61141;46.204;19.774;2023-07-20T05:41:24;99891.78;;;23.81;76.92
72961;BME280;61141;46.204;19.774;2023-07-20T05:44:28;99900.00;;;23.94;76.03
72961;BME280;61141;46.204;19.774;2023-07-20T05:47:30;99914.00;;;23.94;76.11
72961;BME280;61141;46.204;19.774;2023-07-20T05:50:35;99899.03;;;24.06;75.37
72961;BME280;61141;46.204;19.774;2023-07-20T05:53:37;99899.81;;;24.16;74.92
72961;BME280;61141;46.204;19.774;2023-07-20T05:56:41;99902.09;;;24.26;74.32
72961;BME280;61141;46.204;19.774;2023-07-20T05:59:44;99897.03;;;24.39;73.73
72961;BME280;61141;46.204;19.774;2023-07-20T06:02:47;99899.72;;;24.34;73.28
72961;BME280;61141;46.204;19.774;2023-07-20T06:05:59;99901.16;;;24.53;72.98
72961;BME280;61141;46.204;19.774;2023-07-20T06:09:03;99907.78;;;24.65;72.61
72961;BME280;61141;46.204;19.774;2023-07-20T06:12:07;99904.16;;;24.73;72.18
72961;BME280;61141;46.204;19.774;2023-07-20T06:15:32;99902.31;;;24.46;72.42
72961;BME280;61141;46.204;19.774;2023-07-20T06:18:37;99900.75;;;24.45;72.49
72961;BME280;61141;46.204;19.774;2023-07-20T06:21:40;99895.56;;;24.53;72.26
72961;BME280;61141;46.204;19.774;2023-07-20T06:24:43;99895.81;;;24.64;71.56
72961;BME280;61141;46.204;19.774;2023-07-20T06:27:49;99898.62;;;24.64;71.76
72961;BME280;61141;46.204;19.774;2023-07-20T06:31:03;99898.66;;;24.88;71.25
72961;BME280;61141;46.204;19.774;2023-07-20T06:34:07;99892.63;;;24.80;70.99
72961;BME280;61141;46.204;19.774;2023-07-20T06:37:10;99894.13;;;24.90;70.42
72961;BME280;61141;46.204;19.774;2023-07-20T06:40:13;99896.44;;;24.92;70.21
72961;BME280;61141;46.204;19.774;2023-07-20T06:43:19;99894.47;;;25.07;69.77
72961;BME280;61141;46.204;19.774;2023-07-20T06:46:25;99898.09;;;24.98;70.19
72961;BME280;61141;46.204;19.774;2023-07-20T06:49:29;99890.16;;;24.97;69.53
72961;BME280;61141;46.204;19.774;2023-07-20T06:52:33;99892.78;;;25.24;69.19
72961;BME280;61141;46.204;19.774;2023-07-20T06:55:36;99907.66;;;25.30;69.10
72961;BME280;61141;46.204;19.774;2023-07-20T06:58:42;99900.28;;;24.80;70.17
72961;BME280;61141;46.204;19.774;2023-07-20T07:01:45;99900.19;;;25.27;68.68
72961;BME280;61141;46.204;19.774;2023-07-20T07:04:48;99897.81;;;25.35;68.43
72961;BME280;61141;46.204;19.774;2023-07-20T07:08:04;99888.81;;;25.45;68.27
72961;BME280;61141;46.204;19.774;2023-07-20T07:11:10;99894.91;;;25.44;67.82
72961;BME280;61141;46.204;19.774;2023-07-20T07:14:15;99900.97;;;25.81;66.84
72961;BME280;61141;46.204;19.774;2023-07-20T07:17:18;99903.88;;;25.86;66.82
72961;BME280;61141;46.204;19.774;2023-07-20T07:20:22;99907.75;;;26.18;65.66
72961;BME280;61141;46.204;19.774;2023-07-20T07:23:26;99894.94;;;26.32;65.01
72961;BME280;61141;46.204;19.774;2023-07-20T07:26:29;99904.06;;;26.47;64.60
72961;BME280;61141;46.204;19.774;2023-07-20T07:29:32;99911.25;;;26.82;62.85
72961;BME280;61141;46.204;19.774;2023-07-20T07:32:35;99908.16;;;26.80;63.20
72961;BME280;61141;46.204;19.774;2023-07-20T07:35:38;99913.78;;;26.80;62.50
72961;BME280;61141;46.204;19.774;2023-07-20T07:38:41;99928.59;;;27.01;60.72
72961;BME280;61141;46.204;19.774;2023-07-20T07:41:50;99916.94;;;27.28;59.45
72961;BME280;61141;46.204;19.774;2023-07-20T07:44:54;99923.81;;;27.27;59.62
72961;BME280;61141;46.204;19.774;2023-07-20T07:47:57;99923.09;;;27.78;57.90
72961;BME280;61141;46.204;19.774;2023-07-20T07:51:00;99926.41;;;27.77;55.98
72961;BME280;61141;46.204;19.774;2023-07-20T07:54:06;99931.56;;;27.53;56.84
72961;BME280;61141;46.204;19.774;2023-07-20T07:57:09;99921.34;;;27.81;56.48
72961;BME280;61141;46.204;19.774;2023-07-20T08:00:12;99924.75;;;27.90;54.59
72961;BME280;61141;46.204;19.774;2023-07-20T08:03:17;99920.88;;;28.14;53.26
72961;BME280;61141;46.204;19.774;2023-07-20T08:06:21;99911.94;;;27.89;51.33
72961;BME280;61141;46.204;19.774;2023-07-20T08:09:27;99920.00;;;28.02;50.02
72961;BME280;61141;46.204;19.774;2023-07-20T08:12:32;99914.31;;;28.22;49.51
72961;BME280;61141;46.204;19.774;2023-07-20T08:15:34;99917.56;;;28.52;49.08
72961;BME280;61141;46.204;19.774;2023-07-20T08:18:38;99926.28;;;28.54;47.70
72961;BME280;61141;46.204;19.774;2023-07-20T08:21:41;99911.22;;;29.05;47.39
72961;BME280;61141;46.204;19.774;2023-07-20T08:24:45;99918.09;;;28.98;47.28
72961;BME280;61141;46.204;19.774;2023-07-20T08:27:48;99916.47;;;29.40;46.19
72961;BME280;61141;46.204;19.774;2023-07-20T08:30:51;99907.97;;;29.23;44.39
72961;BME280;61141;46.204;19.774;2023-07-20T08:33:56;99920.34;;;28.89;45.74
72961;BME280;61141;46.204;19.774;2023-07-20T08:37:00;99918.19;;;28.30;46.35
72961;BME280;61141;46.204;19.774;2023-07-20T08:40:03;99918.31;;;28.89;45.86
72961;BME280;61141;46.204;19.774;2023-07-20T08:43:10;99915.31;;;28.62;46.41
72961;BME280;61141;46.204;19.774;2023-07-20T08:46:16;99917.78;;;28.85;46.14
72961;BME280;61141;46.204;19.774;2023-07-20T08:49:20;99929.66;;;29.06;46.09
72961;BME280;61141;46.204;19.774;2023-07-20T08:52:23;99924.13;;;29.28;44.39
72961;BME280;61141;46.204;19.774;2023-07-20T08:55:27;99928.84;;;29.64;43.31
72961;BME280;61141;46.204;19.774;2023-07-20T08:58:30;99920.62;;;29.66;43.58
72961;BME280;61141;46.204;19.774;2023-07-20T09:01:35;99923.00;;;29.85;41.86
72961;BME280;61141;46.204;19.774;2023-07-20T09:04:41;99923.03;;;30.12;41.08
72961;BME280;61141;46.204;19.774;2023-07-20T09:07:46;99916.94;;;29.22;41.42
72961;BME280;61141;46.204;19.774;2023-07-20T09:10:49;99911.63;;;29.46;42.75
72961;BME280;61141;46.204;19.774;2023-07-20T09:14:07;99912.69;;;29.70;41.33
72961;BME280;61141;46.204;19.774;2023-07-20T09:17:13;99911.19;;;30.47;40.37
72961;BME280;61141;46.204;19.774;2023-07-20T09:20:20;99909.87;;;29.65;40.44
72961;BME280;61141;46.204;19.774;2023-07-20T09:23:45;99910.59;;;29.43;39.83
72961;BME280;61141;46.204;19.774;2023-07-20T09:26:48;99899.12;;;30.13;39.06
72961;BME280;61141;46.204;19.774;2023-07-20T09:29:56;99907.09;;;30.04;39.77
72961;BME280;61141;46.204;19.774;2023-07-20T09:33:00;99900.13;;;30.16;39.35
72961;BME280;61141;46.204;19.774;2023-07-20T09:36:03;99904.78;;;30.08;39.98
72961;BME280;61141;46.204;19.774;2023-07-20T09:39:27;99894.47;;;30.33;39.96
72961;BME280;61141;46.204;19.774;2023-07-20T09:42:31;99903.44;;;30.64;39.01
72961;BME280;61141;46.204;19.774;2023-07-20T09:45:41;99908.56;;;30.60;38.85
72961;BME280;61141;46.204;19.774;2023-07-20T09:48:53;99903.66;;;30.77;38.66
72961;BME280;61141;46.204;19.774;2023-07-20T09:52:00;99895.63;;;31.04;37.34
72961;BME280;61141;46.204;19.774;2023-07-20T09:55:05;99900.13;;;31.29;36.60
72961;BME280;61141;46.204;19.774;2023-07-20T09:58:09;99899.28;;;30.82;35.34
72961;BME280;61141;46.204;19.774;2023-07-20T10:01:13;99896.50;;;31.34;35.22
72961;BME280;61141;46.204;19.774;2023-07-20T10:04:20;99895.91;;;31.47;35.61
72961;BME280;61141;46.204;19.774;2023-07-20T10:07:35;99897.13;;;31.57;35.18
72961;BME280;61141;46.204;19.774;2023-07-20T10:10:42;99888.19;;;30.95;34.78
72961;BME280;61141;46.204;19.774;2023-07-20T10:13:51;99902.78;;;31.57;33.62
72961;BME280;61141;46.204;19.774;2023-07-20T10:17:00;99886.09;;;31.53;34.10
72961;BME280;61141;46.204;19.774;2023-07-20T10:20:04;99879.87;;;31.90;33.13
72961;BME280;61141;46.204;19.774;2023-07-20T10:23:08;99877.44;;;31.75;33.12
72961;BME280;61141;46.204;19.774;2023-07-20T10:26:11;99868.75;;;31.97;32.88
72961;BME280;61141;46.204;19.774;2023-07-20T10:29:16;99887.25;;;32.34;32.55
72961;BME280;61141;46.204;19.774;2023-07-20T10:32:19;99881.81;;;32.36;31.69
72961;BME280;61141;46.204;19.774;2023-07-20T10:36:04;99886.19;;;32.37;31.73
72961;BME280;61141;46.204;19.774;2023-07-20T10:39:21;99881.22;;;32.19;29.84
72961;BME280;61141;46.204;19.774;2023-07-20T10:42:33;99878.91;;;32.90;29.15
72961;BME280;61141;46.204;19.774;2023-07-20T10:45:39;99868.03;;;33.31;28.70
72961;BME280;61141;46.204;19.774;2023-07-20T10:49:05;99872.94;;;32.93;28.47
72961;BME280;61141;46.204;19.774;2023-07-20T10:52:10;99866.88;;;33.40;28.63
72961;BME280;61141;46.204;19.774;2023-07-20T10:55:16;99862.22;;;33.61;28.16
72961;BME280;61141;46.204;19.774;2023-07-20T10:58:19;99868.53;;;32.92;26.91
72961;BME280;61141;46.204;19.774;2023-07-20T11:01:30;99868.12;;;33.44;26.81
72961;BME280;61141;46.204;19.774;2023-07-20T11:04:43;99868.66;;;33.43;26.95
72961;BME280;61141;46.204;19.774;2023-07-20T11:07:46;99856.25;;;34.09;26.86
72961;BME280;61141;46.204;19.774;2023-07-20T11:14:25;99873.66;;;33.18;27.60
72961;BME280;61141;46.204;19.774;2023-07-20T11:17:32;99858.09;;;33.25;27.54
72961;BME280;61141;46.204;19.774;2023-07-20T11:20:36;99850.88;;;33.24;28.06
72961;BME280;61141;46.204;19.774;2023-07-20T11:23:39;99859.94;;;33.22;28.70
72961;BME280;61141;46.204;19.774;2023-07-20T11:26:51;99861.22;;;33.02;28.01
72961;BME280;61141;46.204;19.774;2023-07-20T11:29:55;99868.69;;;33.24;28.03
72961;BME280;61141;46.204;19.774;2023-07-20T11:32:58;99863.44;;;33.28;27.67
72961;BME280;61141;46.204;19.774;2023-07-20T11:36:01;99855.59;;;33.34;27.14
72961;BME280;61141;46.204;19.774;2023-07-20T11:39:25;99852.75;;;33.34;26.85
72961;BME280;61141;46.204;19.774;2023-07-20T11:42:29;99859.78;;;33.33;26.48
72961;BME280;61141;46.204;19.774;2023-07-20T11:45:39;99854.91;;;33.65;25.92
72961;BME280;61141;46.204;19.774;2023-07-20T11:48:41;99849.72;;;33.83;26.02
72961;BME280;61141;46.204;19.774;2023-07-20T11:51:45;99846.78;;;33.88;26.53
72961;BME280;61141;46.204;19.774;2023-07-20T11:54:48;99851.13;;;34.47;26.07
72961;BME280;61141;46.204;19.774;2023-07-20T11:58:03;99842.25;;;32.92;26.97
72961;BME280;61141;46.204;19.774;2023-07-20T12:01:05;99848.75;;;33.93;26.17
72961;BME280;61141;46.204;19.774;2023-07-20T12:04:08;99828.94;;;34.72;25.24
72961;BME280;61141;46.204;19.774;2023-07-20T12:07:14;99838.66;;;33.29;27.33
72961;BME280;61141;46.204;19.774;2023-07-20T12:10:23;99848.13;;;32.03;28.05
72961;BME280;61141;46.204;19.774;2023-07-20T12:16:40;99837.97;;;32.13;28.07
72961;BME280;61141;46.204;19.774;2023-07-20T12:19:43;99838.00;;;32.80;28.09
72961;BME280;61141;46.204;19.774;2023-07-20T12:22:46;99850.63;;;32.36;28.35
72961;BME280;61141;46.204;19.774;2023-07-20T12:25:49;99852.12;;;32.13;28.47
72961;BME280;61141;46.204;19.774;2023-07-20T12:28:52;99819.47;;;31.41;29.50
72961;BME280;61141;46.204;19.774;2023-07-20T12:31:55;99847.41;;;31.91;29.12
72961;BME280;61141;46.204;19.774;2023-07-20T12:34:58;99832.41;;;32.50;28.48
72961;BME280;61141;46.204;19.774;2023-07-20T12:38:03;99834.78;;;32.46;28.73
72961;BME280;61141;46.204;19.774;2023-07-20T12:41:10;99839.63;;;31.97;29.62
72961;BME280;61141;46.204;19.774;2023-07-20T12:44:15;99826.88;;;32.63;28.99
72961;BME280;61141;46.204;19.774;2023-07-20T12:47:23;99835.09;;;33.60;28.14
72961;BME280;61141;46.204;19.774;2023-07-20T12:50:29;99835.25;;;33.49;27.77
72961;BME280;61141;46.204;19.774;2023-07-20T12:53:34;99830.47;;;33.89;27.09
72961;BME280;61141;46.204;19.774;2023-07-20T12:56:37;99830.12;;;33.79;26.97
72961;BME280;61141;46.204;19.774;2023-07-20T12:59:43;99820.28;;;34.12;26.95
72961;BME280;61141;46.204;19.774;2023-07-20T13:02:46;99827.41;;;33.87;27.29
72961;BME280;61141;46.204;19.774;2023-07-20T13:05:49;99825.81;;;32.85;28.55
72961;BME280;61141;46.204;19.774;2023-07-20T13:08:55;99821.25;;;32.58;28.87
72961;BME280;61141;46.204;19.774;2023-07-20T13:12:01;99821.34;;;32.71;28.45
72961;BME280;61141;46.204;19.774;2023-07-20T13:15:05;99817.44;;;32.92;28.81
72961;BME280;61141;46.204;19.774;2023-07-20T13:18:09;99833.41;;;32.77;28.67
72961;BME280;61141;46.204;19.774;2023-07-20T13:21:11;99825.87;;;32.79;27.89
72961;BME280;61141;46.204;19.774;2023-07-20T13:24:15;99824.94;;;33.14;27.77
72961;BME280;61141;46.204;19.774;2023-07-20T13:27:18;99824.59;;;33.18;28.51
72961;BME280;61141;46.204;19.774;2023-07-20T13:30:21;99820.91;;;33.23;27.95
72961;BME280;61141;46.204;19.774;2023-07-20T13:33:24;99831.63;;;32.92;28.67
72961;BME280;61141;46.204;19.774;2023-07-20T13:36:30;99828.94;;;33.56;27.59
72961;BME280;61141;46.204;19.774;2023-07-20T13:39:33;99821.31;;;33.14;28.29
72961;BME280;61141;46.204;19.774;2023-07-20T13:42:36;99803.97;;;34.12;26.98
72961;BME280;61141;46.204;19.774;2023-07-20T13:45:40;99807.16;;;34.48;26.51
72961;BME280;61141;46.204;19.774;2023-07-20T13:48:43;99808.50;;;33.89;27.39
72961;BME280;61141;46.204;19.774;2023-07-20T13:51:46;99803.06;;;33.28;28.02
72961;BME280;61141;46.204;19.774;2023-07-20T13:55:09;99806.72;;;32.85;28.70
72961;BME280;61141;46.204;19.774;2023-07-20T13:58:15;99806.62;;;32.72;28.62
72961;BME280;61141;46.204;19.774;2023-07-20T14:13:17;99809.34;;;33.21;27.70
72961;BME280;61141;46.204;19.774;2023-07-20T14:16:30;99808.63;;;32.96;27.62
72961;BME280;61141;46.204;19.774;2023-07-20T14:19:37;99813.41;;;33.25;26.80
72961;BME280;61141;46.204;19.774;2023-07-20T14:22:40;99804.19;;;32.39;26.68
72961;BME280;61141;46.204;19.774;2023-07-20T14:25:45;99806.59;;;32.53;26.78
72961;BME280;61141;46.204;19.774;2023-07-20T14:28:50;99804.81;;;32.93;25.59
72961;BME280;61141;46.204;19.774;2023-07-20T14:31:53;99805.56;;;32.94;26.02
72961;BME280;61141;46.204;19.774;2023-07-20T14:34:56;99804.78;;;32.56;25.74
72961;BME280;61141;46.204;19.774;2023-07-20T14:37:59;99806.03;;;32.79;24.95
72961;BME280;61141;46.204;19.774;2023-07-20T14:41:03;99802.31;;;33.59;24.55
72961;BME280;61141;46.204;19.774;2023-07-20T14:44:06;99806.78;;;33.99;24.08
72961;BME280;61141;46.204;19.774;2023-07-20T14:47:11;99814.62;;;33.30;24.56
72961;BME280;61141;46.204;19.774;2023-07-20T14:50:17;99807.62;;;32.75;25.53
72961;BME280;61141;46.204;19.774;2023-07-20T14:53:20;99804.25;;;32.95;25.40
72961;BME280;61141;46.204;19.774;2023-07-20T14:56:23;99805.63;;;33.76;24.65
72961;BME280;61141;46.204;19.774;2023-07-20T14:59:27;99818.72;;;33.66;24.80
72961;BME280;61141;46.204;19.774;2023-07-20T15:02:32;99800.69;;;33.13;25.12
72961;BME280;61141;46.204;19.774;2023-07-20T15:05:38;99807.34;;;33.16;25.23
72961;BME280;61141;46.204;19.774;2023-07-20T15:08:44;99797.56;;;32.92;25.35
72961;BME280;61141;46.204;19.774;2023-07-20T15:11:47;99804.59;;;33.10;25.23
72961;BME280;61141;46.204;19.774;2023-07-20T15:18:10;99807.84;;;32.95;25.42
72961;BME280;61141;46.204;19.774;2023-07-20T15:21:13;99802.63;;;33.37;25.15
72961;BME280;61141;46.204;19.774;2023-07-20T15:24:16;99792.81;;;33.00;25.55
72961;BME280;61141;46.204;19.774;2023-07-20T15:27:19;99817.63;;;33.19;24.57
72961;BME280;61141;46.204;19.774;2023-07-20T15:30:22;99817.28;;;32.18;25.80
72961;BME280;61141;46.204;19.774;2023-07-20T15:33:28;99805.72;;;32.64;25.00
72961;BME280;61141;46.204;19.774;2023-07-20T15:36:31;99825.94;;;32.55;25.36
72961;BME280;61141;46.204;19.774;2023-07-20T15:39:34;99821.06;;;32.26;25.62
72961;BME280;61141;46.204;19.774;2023-07-20T15:42:37;99818.37;;;33.38;24.63
72961;BME280;61141;46.204;19.774;2023-07-20T15:45:40;99822.94;;;33.28;24.25
72961;BME280;61141;46.204;19.774;2023-07-20T15:48:45;99820.97;;;32.98;24.77
72961;BME280;61141;46.204;19.774;2023-07-20T15:51:48;99820.28;;;32.74;25.36
72961;BME280;61141;46.204;19.774;2023-07-20T15:54:51;99821.56;;;32.30;25.68
72961;BME280;61141;46.204;19.774;2023-07-20T15:57:58;99819.50;;;32.06;25.68
72961;BME280;61141;46.204;19.774;2023-07-20T16:01:01;99819.50;;;32.06;25.61
72961;BME280;61141;46.204;19.774;2023-07-20T16:04:05;99834.78;;;32.46;25.45
72961;BME280;61141;46.204;19.774;2023-07-20T16:07:08;99839.69;;;31.62;26.24
72961;BME280;61141;46.204;19.774;2023-07-20T16:10:11;99826.28;;;32.22;25.61
72961;BME280;61141;46.204;19.774;2023-07-20T16:13:14;99834.13;;;32.34;25.56
72961;BME280;61141;46.204;19.774;2023-07-20T16:16:20;99823.97;;;32.20;25.73
72961;BME280;61141;46.204;19.774;2023-07-20T16:19:23;99833.25;;;32.21;25.33
72961;BME280;61141;46.204;19.774;2023-07-20T16:22:27;99832.28;;;32.37;25.55
72961;BME280;61141;46.204;19.774;2023-07-20T16:25:33;99834.06;;;31.86;26.20
72961;BME280;61141;46.204;19.774;2023-07-20T16:28:37;99834.53;;;31.90;26.41
72961;BME280;61141;46.204;19.774;2023-07-20T16:31:40;99837.03;;;31.69;26.05
72961;BME280;61141;46.204;19.774;2023-07-20T16:35:03;99838.72;;;31.54;26.62
72961;BME280;61141;46.204;19.774;2023-07-20T16:38:10;99837.00;;;31.75;26.49
72961;BME280;61141;46.204;19.774;2023-07-20T16:41:15;99836.84;;;31.62;27.55